sensor_id;sensor_type;location;lat;lon;timestamp;temperature;humidity
5930;DHT22;2990;48.746;9.236;2022-12-18T00:00:29;-8.90;99.90
5930;DHT22;2990;48.746;9.236;2022-12-18T00:02:55;-8.90;99.90
5930;DHT22;2990;48.746;9.236;2022-12-18T00:05:21;-8.90;99.90
5930;DHT22;2990;48.746;9.236;2022-12-18T00:07:47;-8.90;99.90
5930;DHT22;2990;48.746;9.236;2022-12-18T00:10:12;-8.90;99.90
5930;DHT22;2990;48.746;9.236;2022-12-18T00:12:38;-8.90;99.90
5930;DHT22;2990;48.746;9.236;2022-12-18T00:15:04;-8.90;99.90
5930;DHT22;2990;48.746;9.236;2022-12-18T00:17:29;-9.00;99.90
5930;DHT22;2990;48.746;9.236;2022-12-18T00:19:55;-9.00;99.50
5930;DHT22;2990;48.746;9.236;2022-12-18T00:22:20;-9.10;98.50
5930;DHT22;2990;48.746;9.236;2022-12-18T00:24:46;-9.10;97.00
5930;DHT22;2990;48.746;9.236;2022-12-18T00:27:11;-9.10;99.40
5930;DHT22;2990;48.746;9.236;2022-12-18T00:29:37;-9.10;96.80
5930;DHT22;2990;48.746;9.236;2022-12-18T00:32:02;-9.10;95.20
5930;DHT22;2990;48.746;9.236;2022-12-18T00:34:28;-9.20;93.40
5930;DHT22;2990;48.746;9.236;2022-12-18T00:36:53;-9.20;94.20
5930;DHT22;2990;48.746;9.236;2022-12-18T00:39:19;-9.20;93.30
5930;DHT22;2990;48.746;9.236;2022-12-18T00:41:44;-9.20;92.80
5930;DHT22;2990;48.746;9.236;2022-12-18T00:44:28;-9.20;93.10
5930;DHT22;2990;48.746;9.236;2022-12-18T00:46:54;-9.20;95.70
5930;DHT22;2990;48.746;9.236;2022-12-18T00:49:20;-9.20;98.10
5930;DHT22;2990;48.746;9.236;2022-12-18T00:51:45;-9.30;97.50
5930;DHT22;2990;48.746;9.236;2022-12-18T00:54:11;-9.30;98.20
5930;DHT22;2990;48.746;9.236;2022-12-18T00:56:38;-9.30;99.10
5930;DHT22;2990;48.746;9.236;2022-12-18T00:59:04;-9.30;99.90
5930;DHT22;2990;48.746;9.236;2022-12-18T01:01:29;-9.30;99.90
5930;DHT22;2990;48.746;9.236;2022-12-18T01:03:55;-9.30;99.90
5930;DHT22;2990;48.746;9.236;2022-12-18T01:06:20;-9.30;99.90
5930;DHT22;2990;48.746;9.236;2022-12-18T01:08:46;-9.30;99.90
5930;DHT22;2990;48.746;9.236;2022-12-18T01:11:17;-9.30;99.90
5930;DHT22;2990;48.746;9.236;2022-12-18T01:13:43;-9.40;99.90
5930;DHT22;2990;48.746;9.236;2022-12-18T01:16:12;-9.40;99.70
5930;DHT22;2990;48.746;9.236;2022-12-18T01:18:38;-9.40;99.00
5930;DHT22;2990;48.746;9.236;2022-12-18T01:21:13;-9.50;98.70
5930;DHT22;2990;48.746;9.236;2022-12-18T01:23:39;-9.50;99.00
5930;DHT22;2990;48.746;9.236;2022-12-18T01:26:10;-9.50;98.00
5930;DHT22;2990;48.746;9.236;2022-12-18T01:28:36;-9.50;97.70
5930;DHT22;2990;48.746;9.236;2022-12-18T01:33:37;-9.50;98.70
5930;DHT22;2990;48.746;9.236;2022-12-18T01:36:03;-9.40;99.90
5930;DHT22;2990;48.746;9.236;2022-12-18T01:38:28;-9.40;99.90
5930;DHT22;2990;48.746;9.236;2022-12-18T01:41:01;-9.40;99.90
5930;DHT22;2990;48.746;9.236;2022-12-18T01:43:50;-9.40;99.90
5930;DHT22;2990;48.746;9.236;2022-12-18T01:46:17;-9.40;99.90
5930;DHT22;2990;48.746;9.236;2022-12-18T01:48:46;-9.30;99.90
5930;DHT22;2990;48.746;9.236;2022-12-18T01:51:13;-9.30;99.90
5930;DHT22;2990;48.746;9.236;2022-12-18T01:53:40;-9.20;99.90
5930;DHT22;2990;48.746;9.236;2022-12-18T01:56:07;-9.20;99.90
5930;DHT22;2990;48.746;9.236;2022-12-18T01:59:09;-9.10;99.90
5930;DHT22;2990;48.746;9.236;2022-12-18T02:01:36;-9.10;99.90
5930;DHT22;2990;48.746;9.236;2022-12-18T02:04:24;-9.00;99.90
5930;DHT22;2990;48.746;9.236;2022-12-18T02:07:20;-8.90;99.90
5930;DHT22;2990;48.746;9.236;2022-12-18T02:12:45;-8.80;99.90
5930;DHT22;2990;48.746;9.236;2022-12-18T02:15:24;-8.80;99.90
5930;DHT22;2990;48.746;9.236;2022-12-18T02:17:56;-8.70;99.90
5930;DHT22;2990;48.746;9.236;2022-12-18T02:23:06;-8.60;99.90
5930;DHT22;2990;48.746;9.236;2022-12-18T02:28:09;-8.60;99.90
5930;DHT22;2990;48.746;9.236;2022-12-18T02:30:37;-8.50;99.90
5930;DHT22;2990;48.746;9.236;2022-12-18T02:33:06;-8.60;99.90
5930;DHT22;2990;48.746;9.236;2022-12-18T02:35:32;-8.50;99.90
5930;DHT22;2990;48.746;9.236;2022-12-18T02:37:59;-8.60;99.90
5930;DHT22;2990;48.746;9.236;2022-12-18T02:40:27;-8.60;96.00
5930;DHT22;2990;48.746;9.236;2022-12-18T02:42:53;-8.60;88.70
5930;DHT22;2990;48.746;9.236;2022-12-18T02:45:19;-8.70;69.30
5930;DHT22;2990;48.746;9.236;2022-12-18T02:47:48;-8.70;49.00
5930;DHT22;2990;48.746;9.236;2022-12-18T02:50:35;-8.70;41.00
5930;DHT22;2990;48.746;9.236;2022-12-18T02:55:50;-8.70;19.40
5930;DHT22;2990;48.746;9.236;2022-12-18T02:58:28;-8.80;9.90
5930;DHT22;2990;48.746;9.236;2022-12-18T03:01:08;-8.80;1.00
5930;DHT22;2990;48.746;9.236;2022-12-18T03:03:47;-8.80;1.00
5930;DHT22;2990;48.746;9.236;2022-12-18T03:06:28;-8.90;1.00
5930;DHT22;2990;48.746;9.236;2022-12-18T03:09:01;-8.90;1.00
5930;DHT22;2990;48.746;9.236;2022-12-18T03:11:31;-8.90;1.00
5930;DHT22;2990;48.746;9.236;2022-12-18T03:14:18;-8.90;1.00
5930;DHT22;2990;48.746;9.236;2022-12-18T03:16:45;-9.00;1.00
5930;DHT22;2990;48.746;9.236;2022-12-18T03:19:15;-8.90;1.00
5930;DHT22;2990;48.746;9.236;2022-12-18T03:21:51;-8.90;1.00
5930;DHT22;2990;48.746;9.236;2022-12-18T03:24:18;-8.90;1.00
5930;DHT22;2990;48.746;9.236;2022-12-18T03:26:47;-9.00;1.00
5930;DHT22;2990;48.746;9.236;2022-12-18T03:29:33;-9.00;1.00
5930;DHT22;2990;48.746;9.236;2022-12-18T03:32:05;-9.00;1.00
5930;DHT22;2990;48.746;9.236;2022-12-18T03:34:35;-9.00;1.00
5930;DHT22;2990;48.746;9.236;2022-12-18T03:37:03;-9.10;1.00
5930;DHT22;2990;48.746;9.236;2022-12-18T03:39:29;-9.10;1.00
5930;DHT22;2990;48.746;9.236;2022-12-18T03:42:21;-9.20;1.00
5930;DHT22;2990;48.746;9.236;2022-12-18T03:50:19;-9.30;1.00
5930;DHT22;2990;48.746;9.236;2022-12-18T03:55:25;-9.40;1.00
5930;DHT22;2990;48.746;9.236;2022-12-18T03:57:52;-9.40;1.00
5930;DHT22;2990;48.746;9.236;2022-12-18T04:00:19;-9.50;1.00
5930;DHT22;2990;48.746;9.236;2022-12-18T04:02:49;-9.50;1.00
5930;DHT22;2990;48.746;9.236;2022-12-18T04:05:17;-9.60;1.00
5930;DHT22;2990;48.746;9.236;2022-12-18T04:07:44;-9.70;1.00
5930;DHT22;2990;48.746;9.236;2022-12-18T04:10:11;-9.70;1.00
5930;DHT22;2990;48.746;9.236;2022-12-18T04:12:37;-9.70;1.00
5930;DHT22;2990;48.746;9.236;2022-12-18T04:15:04;-9.70;1.00
5930;DHT22;2990;48.746;9.236;2022-12-18T04:17:29;-9.80;1.00
5930;DHT22;2990;48.746;9.236;2022-12-18T04:19:55;-9.80;1.00
5930;DHT22;2990;48.746;9.236;2022-12-18T04:22:20;-9.80;1.00
5930;DHT22;2990;48.746;9.236;2022-12-18T04:24:46;-9.90;1.00
5930;DHT22;2990;48.746;9.236;2022-12-18T04:27:12;-10.00;1.00
5930;DHT22;2990;48.746;9.236;2022-12-18T04:29:37;-10.00;1.00
5930;DHT22;2990;48.746;9.236;2022-12-18T04:32:03;-10.00;1.00
5930;DHT22;2990;48.746;9.236;2022-12-18T04:34:29;-10.00;1.00
5930;DHT22;2990;48.746;9.236;2022-12-18T04:36:54;-10.00;1.00
5930;DHT22;2990;48.746;9.236;2022-12-18T04:39:20;-10.10;1.00
5930;DHT22;2990;48.746;9.236;2022-12-18T04:41:45;-10.10;1.00
5930;DHT22;2990;48.746;9.236;2022-12-18T04:44:11;-10.10;1.00
5930;DHT22;2990;48.746;9.236;2022-12-18T04:46:36;-10.00;1.00
5930;DHT22;2990;48.746;9.236;2022-12-18T04:49:02;-10.00;1.00
5930;DHT22;2990;48.746;9.236;2022-12-18T04:51:27;-10.10;1.00
5930;DHT22;2990;48.746;9.236;2022-12-18T04:53:53;-10.10;1.00
5930;DHT22;2990;48.746;9.236;2022-12-18T04:56:19;-10.10;1.00
5930;DHT22;2990;48.746;9.236;2022-12-18T04:58:44;-10.10;1.00
5930;DHT22;2990;48.746;9.236;2022-12-18T05:01:12;-10.10;1.00
5930;DHT22;2990;48.746;9.236;2022-12-18T05:03:39;-10.20;1.00
5930;DHT22;2990;48.746;9.236;2022-12-18T05:06:05;-10.30;1.00
5930;DHT22;2990;48.746;9.236;2022-12-18T05:08:31;-10.30;1.00
5930;DHT22;2990;48.746;9.236;2022-12-18T05:11:02;-10.40;1.00
5930;DHT22;2990;48.746;9.236;2022-12-18T05:13:29;-10.40;1.00
5930;DHT22;2990;48.746;9.236;2022-12-18T05:15:55;-10.40;1.00
5930;DHT22;2990;48.746;9.236;2022-12-18T05:18:21;-10.40;1.00
5930;DHT22;2990;48.746;9.236;2022-12-18T05:20:47;-10.40;1.00
5930;DHT22;2990;48.746;9.236;2022-12-18T05:23:12;-10.40;1.00
5930;DHT22;2990;48.746;9.236;2022-12-18T05:25:38;-10.50;1.00
5930;DHT22;2990;48.746;9.236;2022-12-18T05:28:04;-10.50;1.00
5930;DHT22;2990;48.746;9.236;2022-12-18T05:30:29;-10.50;1.00
5930;DHT22;2990;48.746;9.236;2022-12-18T05:32:55;-10.50;1.00
5930;DHT22;2990;48.746;9.236;2022-12-18T05:35:20;-10.60;1.00
5930;DHT22;2990;48.746;9.236;2022-12-18T05:37:46;-10.60;1.00
5930;DHT22;2990;48.746;9.236;2022-12-18T05:40:12;-10.60;1.00
5930;DHT22;2990;48.746;9.236;2022-12-18T05:42:37;-10.60;1.00
5930;DHT22;2990;48.746;9.236;2022-12-18T05:45:04;-10.60;1.00
5930;DHT22;2990;48.746;9.236;2022-12-18T05:47:30;-10.60;1.00
5930;DHT22;2990;48.746;9.236;2022-12-18T05:49:55;-10.60;1.00
5930;DHT22;2990;48.746;9.236;2022-12-18T05:52:21;-10.60;1.00
5930;DHT22;2990;48.746;9.236;2022-12-18T05:54:47;-10.70;1.00
5930;DHT22;2990;48.746;9.236;2022-12-18T05:57:12;-10.70;1.00
5930;DHT22;2990;48.746;9.236;2022-12-18T05:59:38;-10.70;1.00
5930;DHT22;2990;48.746;9.236;2022-12-18T06:02:04;-10.70;1.00
5930;DHT22;2990;48.746;9.236;2022-12-18T06:04:29;-10.70;1.00
5930;DHT22;2990;48.746;9.236;2022-12-18T06:06:55;-10.70;1.00
5930;DHT22;2990;48.746;9.236;2022-12-18T06:09:20;-10.60;1.00
5930;DHT22;2990;48.746;9.236;2022-12-18T06:11:46;-10.60;1.00
5930;DHT22;2990;48.746;9.236;2022-12-18T06:14:11;-10.60;1.00
5930;DHT22;2990;48.746;9.236;2022-12-18T06:16:37;-10.70;1.00
5930;DHT22;2990;48.746;9.236;2022-12-18T06:19:05;-10.70;1.00
5930;DHT22;2990;48.746;9.236;2022-12-18T06:21:31;-10.60;1.00
5930;DHT22;2990;48.746;9.236;2022-12-18T06:23:57;-10.60;1.00
5930;DHT22;2990;48.746;9.236;2022-12-18T06:26:23;-10.60;1.00
5930;DHT22;2990;48.746;9.236;2022-12-18T06:28:49;-10.60;1.00
5930;DHT22;2990;48.746;9.236;2022-12-18T06:31:14;-10.50;1.00
5930;DHT22;2990;48.746;9.236;2022-12-18T06:33:40;-10.50;1.00
5930;DHT22;2990;48.746;9.236;2022-12-18T06:36:09;-10.40;1.00
5930;DHT22;2990;48.746;9.236;2022-12-18T06:38:37;-10.50;1.00
5930;DHT22;2990;48.746;9.236;2022-12-18T06:41:10;-10.50;1.00
5930;DHT22;2990;48.746;9.236;2022-12-18T06:43:37;-10.40;1.00
5930;DHT22;2990;48.746;9.236;2022-12-18T06:46:04;-10.40;1.00
5930;DHT22;2990;48.746;9.236;2022-12-18T06:48:30;-10.40;1.00
5930;DHT22;2990;48.746;9.236;2022-12-18T06:50:55;-10.40;1.00
5930;DHT22;2990;48.746;9.236;2022-12-18T06:53:21;-10.40;1.00
5930;DHT22;2990;48.746;9.236;2022-12-18T06:55:47;-10.30;1.00
5930;DHT22;2990;48.746;9.236;2022-12-18T06:58:12;-10.30;1.00
5930;DHT22;2990;48.746;9.236;2022-12-18T07:00:38;-10.30;1.00
5930;DHT22;2990;48.746;9.236;2022-12-18T07:03:03;-10.20;1.00
5930;DHT22;2990;48.746;9.236;2022-12-18T07:05:29;-10.10;1.00
5930;DHT22;2990;48.746;9.236;2022-12-18T07:07:54;-10.10;1.00
5930;DHT22;2990;48.746;9.236;2022-12-18T07:10:20;-10.00;1.00
5930;DHT22;2990;48.746;9.236;2022-12-18T07:12:45;-10.00;1.00
5930;DHT22;2990;48.746;9.236;2022-12-18T07:15:11;-10.00;1.00
5930;DHT22;2990;48.746;9.236;2022-12-18T07:17:37;-9.90;1.00
5930;DHT22;2990;48.746;9.236;2022-12-18T07:20:03;-9.90;1.00
5930;DHT22;2990;48.746;9.236;2022-12-18T07:22:29;-9.90;1.00
5930;DHT22;2990;48.746;9.236;2022-12-18T07:24:55;-9.90;1.00
5930;DHT22;2990;48.746;9.236;2022-12-18T07:27:21;-9.80;1.00
5930;DHT22;2990;48.746;9.236;2022-12-18T07:29:46;-9.80;2.20
5930;DHT22;2990;48.746;9.236;2022-12-18T07:32:12;-9.80;7.00
5930;DHT22;2990;48.746;9.236;2022-12-18T07:34:37;-9.70;12.50
5930;DHT22;2990;48.746;9.236;2022-12-18T07:37:03;-9.70;18.40
5930;DHT22;2990;48.746;9.236;2022-12-18T07:39:28;-9.60;24.50
5930;DHT22;2990;48.746;9.236;2022-12-18T07:41:54;-9.50;29.80
5930;DHT22;2990;48.746;9.236;2022-12-18T07:44:38;-9.50;36.00
5930;DHT22;2990;48.746;9.236;2022-12-18T07:47:04;-9.40;44.30
5930;DHT22;2990;48.746;9.236;2022-12-18T07:49:30;-9.30;45.40
5930;DHT22;2990;48.746;9.236;2022-12-18T07:51:56;-9.30;46.00
5930;DHT22;2990;48.746;9.236;2022-12-18T07:54:23;-9.30;47.30
5930;DHT22;2990;48.746;9.236;2022-12-18T07:56:48;-9.20;49.40
5930;DHT22;2990;48.746;9.236;2022-12-18T07:59:14;-9.20;48.20
5930;DHT22;2990;48.746;9.236;2022-12-18T08:01:40;-9.10;49.10
5930;DHT22;2990;48.746;9.236;2022-12-18T08:04:05;-9.00;47.70
5930;DHT22;2990;48.746;9.236;2022-12-18T08:06:31;-9.00;44.60
5930;DHT22;2990;48.746;9.236;2022-12-18T08:08:56;-8.90;37.90
5930;DHT22;2990;48.746;9.236;2022-12-18T08:11:25;-8.80;31.90
5930;DHT22;2990;48.746;9.236;2022-12-18T08:13:51;-8.80;26.80
5930;DHT22;2990;48.746;9.236;2022-12-18T08:16:17;-8.70;20.90
5930;DHT22;2990;48.746;9.236;2022-12-18T08:18:43;-8.60;15.10
5930;DHT22;2990;48.746;9.236;2022-12-18T08:21:14;-8.50;12.00
5930;DHT22;2990;48.746;9.236;2022-12-18T08:23:40;-8.40;5.50
5930;DHT22;2990;48.746;9.236;2022-12-18T08:26:06;-8.30;1.00
5930;DHT22;2990;48.746;9.236;2022-12-18T08:28:32;-8.20;1.00
5930;DHT22;2990;48.746;9.236;2022-12-18T08:30:57;-8.10;1.00
5930;DHT22;2990;48.746;9.236;2022-12-18T08:33:23;-8.00;1.00
5930;DHT22;2990;48.746;9.236;2022-12-18T08:35:48;-7.90;1.00
5930;DHT22;2990;48.746;9.236;2022-12-18T08:38:14;-7.80;1.00
5930;DHT22;2990;48.746;9.236;2022-12-18T08:40:39;-7.70;1.00
5930;DHT22;2990;48.746;9.236;2022-12-18T08:43:05;-7.60;1.00
5930;DHT22;2990;48.746;9.236;2022-12-18T08:45:49;-7.50;1.00
5930;DHT22;2990;48.746;9.236;2022-12-18T08:48:14;-7.40;1.00
5930;DHT22;2990;48.746;9.236;2022-12-18T08:50:40;-7.20;1.00
5930;DHT22;2990;48.746;9.236;2022-12-18T08:53:06;-7.00;1.00
5930;DHT22;2990;48.746;9.236;2022-12-18T08:55:31;-6.90;1.00
5930;DHT22;2990;48.746;9.236;2022-12-18T08:57:57;-6.70;1.00
5930;DHT22;2990;48.746;9.236;2022-12-18T09:00:22;-6.60;1.00
5930;DHT22;2990;48.746;9.236;2022-12-18T09:02:48;-6.40;99.90
5930;DHT22;2990;48.746;9.236;2022-12-18T09:05:14;-6.20;99.90
5930;DHT22;2990;48.746;9.236;2022-12-18T09:07:39;-6.00;99.90
5930;DHT22;2990;48.746;9.236;2022-12-18T09:10:05;-5.80;99.90
5930;DHT22;2990;48.746;9.236;2022-12-18T09:12:31;-5.60;13.40
5930;DHT22;2990;48.746;9.236;2022-12-18T09:14:57;-5.40;1.00
5930;DHT22;2990;48.746;9.236;2022-12-18T09:17:22;-5.30;99.90
5930;DHT22;2990;48.746;9.236;2022-12-18T09:19:48;-5.20;99.90
5930;DHT22;2990;48.746;9.236;2022-12-18T09:22:17;-5.00;1.00
5930;DHT22;2990;48.746;9.236;2022-12-18T09:24:43;-4.80;1.00
5930;DHT22;2990;48.746;9.236;2022-12-18T09:27:08;-4.70;1.00
5930;DHT22;2990;48.746;9.236;2022-12-18T09:29:34;-4.60;17.20
5930;DHT22;2990;48.746;9.236;2022-12-18T09:31:59;-4.50;1.00
5930;DHT22;2990;48.746;9.236;2022-12-18T09:34:25;-4.50;1.00
5930;DHT22;2990;48.746;9.236;2022-12-18T09:36:51;-4.40;99.90
5930;DHT22;2990;48.746;9.236;2022-12-18T09:39:16;-4.20;51.90
5930;DHT22;2990;48.746;9.236;2022-12-18T09:44:18;-3.80;99.90
5930;DHT22;2990;48.746;9.236;2022-12-18T09:46:59;-3.70;1.00
5930;DHT22;2990;48.746;9.236;2022-12-18T09:49:29;-3.80;1.00
5930;DHT22;2990;48.746;9.236;2022-12-18T09:52:02;-3.90;99.90
5930;DHT22;2990;48.746;9.236;2022-12-18T09:54:39;-3.70;98.70
5930;DHT22;2990;48.746;9.236;2022-12-18T09:57:05;-3.80;99.90
5930;DHT22;2990;48.746;9.236;2022-12-18T09:59:35;-3.70;1.00
5930;DHT22;2990;48.746;9.236;2022-12-18T10:02:17;-3.80;99.90
5930;DHT22;2990;48.746;9.236;2022-12-18T10:04:43;-3.90;1.00
5930;DHT22;2990;48.746;9.236;2022-12-18T10:07:17;-3.90;1.00
5930;DHT22;2990;48.746;9.236;2022-12-18T10:13:00;-4.10;1.00
5930;DHT22;2990;48.746;9.236;2022-12-18T10:20:49;-4.00;1.00
5930;DHT22;2990;48.746;9.236;2022-12-18T10:26:06;-4.00;1.00
5930;DHT22;2990;48.746;9.236;2022-12-18T10:28:33;-4.00;1.00
5930;DHT22;2990;48.746;9.236;2022-12-18T10:31:00;-3.90;1.00
5930;DHT22;2990;48.746;9.236;2022-12-18T10:33:29;-3.90;99.90
5930;DHT22;2990;48.746;9.236;2022-12-18T10:35:55;-3.90;1.00
5930;DHT22;2990;48.746;9.236;2022-12-18T10:38:27;-3.90;1.00
5930;DHT22;2990;48.746;9.236;2022-12-18T10:41:02;-4.00;1.00
5930;DHT22;2990;48.746;9.236;2022-12-18T10:43:31;-3.90;99.90
5930;DHT22;2990;48.746;9.236;2022-12-18T10:46:17;-3.80;99.90
5930;DHT22;2990;48.746;9.236;2022-12-18T10:51:34;-3.50;99.90
5930;DHT22;2990;48.746;9.236;2022-12-18T10:54:07;-3.50;99.90
5930;DHT22;2990;48.746;9.236;2022-12-18T10:56:38;-3.60;99.90
5930;DHT22;2990;48.746;9.236;2022-12-18T10:59:09;-3.60;1.00
5930;DHT22;2990;48.746;9.236;2022-12-18T11:01:53;-3.60;99.90
5930;DHT22;2990;48.746;9.236;2022-12-18T11:04:31;-3.50;99.90
5930;DHT22;2990;48.746;9.236;2022-12-18T11:09:32;-3.30;1.00
5930;DHT22;2990;48.746;9.236;2022-12-18T11:12:13;-3.20;1.00
5930;DHT22;2990;48.746;9.236;2022-12-18T11:14:46;-3.10;1.00
5930;DHT22;2990;48.746;9.236;2022-12-18T11:17:33;-2.90;1.00
5930;DHT22;2990;48.746;9.236;2022-12-18T11:20:03;-2.70;99.90
5930;DHT22;2990;48.746;9.236;2022-12-18T11:22:33;-2.50;1.00
5930;DHT22;2990;48.746;9.236;2022-12-18T11:27:28;-2.60;99.90
5930;DHT22;2990;48.746;9.236;2022-12-18T11:33:40;-2.70;1.00
5930;DHT22;2990;48.746;9.236;2022-12-18T11:35:52;-2.60;98.40
5930;DHT22;2990;48.746;9.236;2022-12-18T11:38:27;-2.60;99.90
5930;DHT22;2990;48.746;9.236;2022-12-18T11:41:23;-2.60;99.90
5930;DHT22;2990;48.746;9.236;2022-12-18T11:44:13;-2.60;1.00
5930;DHT22;2990;48.746;9.236;2022-12-18T11:46:53;-2.50;99.90
5930;DHT22;2990;48.746;9.236;2022-12-18T11:49:25;-2.40;1.00
5930;DHT22;2990;48.746;9.236;2022-12-18T11:52:00;-2.50;1.00
5930;DHT22;2990;48.746;9.236;2022-12-18T11:54:27;-2.40;99.90
5930;DHT22;2990;48.746;9.236;2022-12-18T11:57:02;-2.40;1.00
5930;DHT22;2990;48.746;9.236;2022-12-18T11:59:55;-2.30;99.90
5930;DHT22;2990;48.746;9.236;2022-12-18T12:02:49;-2.20;99.90
5930;DHT22;2990;48.746;9.236;2022-12-18T12:10:41;-2.30;1.00
5930;DHT22;2990;48.746;9.236;2022-12-18T12:13:29;-2.30;99.90
5930;DHT22;2990;48.746;9.236;2022-12-18T12:16:17;-2.30;1.00
5930;DHT22;2990;48.746;9.236;2022-12-18T12:27:20;-2.30;1.00
5930;DHT22;2990;48.746;9.236;2022-12-18T12:30:03;-2.40;99.90
5930;DHT22;2990;48.746;9.236;2022-12-18T12:35:33;-2.30;1.00
5930;DHT22;2990;48.746;9.236;2022-12-18T12:38:23;-2.40;1.00
5930;DHT22;2990;48.746;9.236;2022-12-18T12:41:08;-2.40;1.00
5930;DHT22;2990;48.746;9.236;2022-12-18T12:43:57;-2.40;99.90
5930;DHT22;2990;48.746;9.236;2022-12-18T12:46:25;-2.30;99.90
5930;DHT22;2990;48.746;9.236;2022-12-18T12:51:26;-2.30;1.00
5930;DHT22;2990;48.746;9.236;2022-12-18T12:53:54;-2.30;1.00
5930;DHT22;2990;48.746;9.236;2022-12-18T12:56:22;-2.30;1.00
5930;DHT22;2990;48.746;9.236;2022-12-18T13:07:25;-2.20;1.00
5930;DHT22;2990;48.746;9.236;2022-12-18T13:13:00;-2.10;86.00
5930;DHT22;2990;48.746;9.236;2022-12-18T13:15:31;-2.10;99.90
5930;DHT22;2990;48.746;9.236;2022-12-18T13:18:23;-2.10;99.90
5930;DHT22;2990;48.746;9.236;2022-12-18T13:23:27;-2.00;99.90
5930;DHT22;2990;48.746;9.236;2022-12-18T13:31:13;-1.90;99.90
5930;DHT22;2990;48.746;9.236;2022-12-18T13:33:42;-2.00;1.00
5930;DHT22;2990;48.746;9.236;2022-12-18T13:38:42;-2.00;1.00
5930;DHT22;2990;48.746;9.236;2022-12-18T13:43:48;-2.00;1.00
5930;DHT22;2990;48.746;9.236;2022-12-18T13:46:43;-2.10;1.00
5930;DHT22;2990;48.746;9.236;2022-12-18T13:51:43;-2.10;1.00
5930;DHT22;2990;48.746;9.236;2022-12-18T13:54:37;-2.20;99.90
5930;DHT22;2990;48.746;9.236;2022-12-18T13:57:05;-2.20;99.90
5930;DHT22;2990;48.746;9.236;2022-12-18T13:59:40;-2.30;99.90
5930;DHT22;2990;48.746;9.236;2022-12-18T14:02:13;-2.30;1.00
5930;DHT22;2990;48.746;9.236;2022-12-18T14:04:39;-2.30;27.70
5930;DHT22;2990;48.746;9.236;2022-12-18T14:07:13;-2.40;99.90
5930;DHT22;2990;48.746;9.236;2022-12-18T14:09:43;-2.40;1.00
5930;DHT22;2990;48.746;9.236;2022-12-18T14:12:20;-2.50;1.00
5930;DHT22;2990;48.746;9.236;2022-12-18T14:15:09;-2.60;99.90
5930;DHT22;2990;48.746;9.236;2022-12-18T14:17:40;-2.60;1.00
5930;DHT22;2990;48.746;9.236;2022-12-18T14:20:15;-2.70;99.90
5930;DHT22;2990;48.746;9.236;2022-12-18T14:22:46;-2.80;99.90
5930;DHT22;2990;48.746;9.236;2022-12-18T14:27:41;-2.90;99.90
5930;DHT22;2990;48.746;9.236;2022-12-18T14:33:16;-3.10;1.00
5930;DHT22;2990;48.746;9.236;2022-12-18T14:35:58;-3.10;99.90
5930;DHT22;2990;48.746;9.236;2022-12-18T14:38:40;-3.20;99.90
5930;DHT22;2990;48.746;9.236;2022-12-18T14:41:13;-3.30;99.90
5930;DHT22;2990;48.746;9.236;2022-12-18T14:43:41;-3.40;1.00
5930;DHT22;2990;48.746;9.236;2022-12-18T14:48:52;-3.50;1.00
5930;DHT22;2990;48.746;9.236;2022-12-18T14:51:24;-3.50;1.00
5930;DHT22;2990;48.746;9.236;2022-12-18T14:54:03;-3.60;1.00
5930;DHT22;2990;48.746;9.236;2022-12-18T14:56:31;-3.70;1.00
5930;DHT22;2990;48.746;9.236;2022-12-18T14:59:02;-3.70;1.00
5930;DHT22;2990;48.746;9.236;2022-12-18T15:01:29;-3.80;73.30
5930;DHT22;2990;48.746;9.236;2022-12-18T15:03:57;-3.90;99.90
5930;DHT22;2990;48.746;9.236;2022-12-18T15:06:32;-3.90;99.90
5930;DHT22;2990;48.746;9.236;2022-12-18T15:09:00;-4.00;99.90
5930;DHT22;2990;48.746;9.236;2022-12-18T15:16:59;-4.10;99.90
5930;DHT22;2990;48.746;9.236;2022-12-18T15:19:39;-4.20;99.90
5930;DHT22;2990;48.746;9.236;2022-12-18T15:22:18;-4.20;1.00
5930;DHT22;2990;48.746;9.236;2022-12-18T15:24:44;-4.30;1.00
5930;DHT22;2990;48.746;9.236;2022-12-18T15:27:34;-4.30;1.00
5930;DHT22;2990;48.746;9.236;2022-12-18T15:32:35;-4.30;1.00
5930;DHT22;2990;48.746;9.236;2022-12-18T15:37:29;-4.40;1.00
5930;DHT22;2990;48.746;9.236;2022-12-18T15:39:54;-4.40;1.00
5930;DHT22;2990;48.746;9.236;2022-12-18T15:42:20;-4.50;1.00
5930;DHT22;2990;48.746;9.236;2022-12-18T15:45:24;-4.50;1.00
5930;DHT22;2990;48.746;9.236;2022-12-18T15:47:49;-4.50;1.00
5930;DHT22;2990;48.746;9.236;2022-12-18T15:50:15;-4.50;1.00
5930;DHT22;2990;48.746;9.236;2022-12-18T15:52:46;-4.60;1.00
5930;DHT22;2990;48.746;9.236;2022-12-18T15:55:21;-4.60;1.00
5930;DHT22;2990;48.746;9.236;2022-12-18T15:58:06;-4.60;1.00
5930;DHT22;2990;48.746;9.236;2022-12-18T16:00:35;-4.60;1.00
5930;DHT22;2990;48.746;9.236;2022-12-18T16:03:01;-4.60;1.00
5930;DHT22;2990;48.746;9.236;2022-12-18T16:05:28;-4.70;1.00
5930;DHT22;2990;48.746;9.236;2022-12-18T16:07:54;-4.70;1.00
5930;DHT22;2990;48.746;9.236;2022-12-18T16:10:20;-4.70;1.00
5930;DHT22;2990;48.746;9.236;2022-12-18T16:12:46;-4.80;1.00
5930;DHT22;2990;48.746;9.236;2022-12-18T16:15:13;-4.80;1.00
5930;DHT22;2990;48.746;9.236;2022-12-18T16:17:42;-4.80;1.00
5930;DHT22;2990;48.746;9.236;2022-12-18T16:20:16;-4.70;1.00
5930;DHT22;2990;48.746;9.236;2022-12-18T16:22:43;-4.70;1.00
5930;DHT22;2990;48.746;9.236;2022-12-18T16:25:22;-4.70;1.00
5930;DHT22;2990;48.746;9.236;2022-12-18T16:27:48;-4.70;1.00
5930;DHT22;2990;48.746;9.236;2022-12-18T16:30:16;-4.70;1.00
5930;DHT22;2990;48.746;9.236;2022-12-18T16:32:42;-4.70;1.00
5930;DHT22;2990;48.746;9.236;2022-12-18T16:35:13;-4.70;1.00
5930;DHT22;2990;48.746;9.236;2022-12-18T16:37:39;-4.60;1.00
5930;DHT22;2990;48.746;9.236;2022-12-18T16:40:07;-4.60;1.00
5930;DHT22;2990;48.746;9.236;2022-12-18T16:42:37;-4.60;1.00
5930;DHT22;2990;48.746;9.236;2022-12-18T16:45:05;-4.60;1.00
5930;DHT22;2990;48.746;9.236;2022-12-18T16:47:31;-4.60;1.00
5930;DHT22;2990;48.746;9.236;2022-12-18T16:49:56;-4.60;1.00
5930;DHT22;2990;48.746;9.236;2022-12-18T16:52:22;-4.60;1.00
5930;DHT22;2990;48.746;9.236;2022-12-18T16:54:47;-4.60;1.00
5930;DHT22;2990;48.746;9.236;2022-12-18T16:57:16;-4.70;1.00
5930;DHT22;2990;48.746;9.236;2022-12-18T16:59:42;-4.70;1.00
5930;DHT22;2990;48.746;9.236;2022-12-18T17:02:19;-4.70;1.00
5930;DHT22;2990;48.746;9.236;2022-12-18T17:04:46;-4.70;1.00
5930;DHT22;2990;48.746;9.236;2022-12-18T17:07:11;-4.60;1.00
5930;DHT22;2990;48.746;9.236;2022-12-18T17:09:37;-4.60;1.00
5930;DHT22;2990;48.746;9.236;2022-12-18T17:12:03;-4.70;1.00
5930;DHT22;2990;48.746;9.236;2022-12-18T17:14:30;-4.70;1.00
5930;DHT22;2990;48.746;9.236;2022-12-18T17:16:56;-4.70;1.00
5930;DHT22;2990;48.746;9.236;2022-12-18T17:19:23;-4.70;1.00
5930;DHT22;2990;48.746;9.236;2022-12-18T17:21:49;-4.70;1.00
5930;DHT22;2990;48.746;9.236;2022-12-18T17:24:15;-4.70;1.00
5930;DHT22;2990;48.746;9.236;2022-12-18T17:26:41;-4.70;1.00
5930;DHT22;2990;48.746;9.236;2022-12-18T17:29:08;-4.60;1.00
5930;DHT22;2990;48.746;9.236;2022-12-18T17:31:34;-4.60;1.00
5930;DHT22;2990;48.746;9.236;2022-12-18T17:34:01;-4.60;1.00
5930;DHT22;2990;48.746;9.236;2022-12-18T17:36:27;-4.60;1.00
5930;DHT22;2990;48.746;9.236;2022-12-18T17:38:58;-4.50;1.00
5930;DHT22;2990;48.746;9.236;2022-12-18T17:41:25;-4.50;1.00
5930;DHT22;2990;48.746;9.236;2022-12-18T17:43:56;-4.50;1.00
5930;DHT22;2990;48.746;9.236;2022-12-18T17:46:22;-4.50;1.00
5930;DHT22;2990;48.746;9.236;2022-12-18T17:48:47;-4.50;1.00
5930;DHT22;2990;48.746;9.236;2022-12-18T17:51:14;-4.50;1.00
5930;DHT22;2990;48.746;9.236;2022-12-18T17:53:40;-4.50;1.00
5930;DHT22;2990;48.746;9.236;2022-12-18T17:56:06;-4.50;1.00
5930;DHT22;2990;48.746;9.236;2022-12-18T17:58:35;-4.50;1.00
5930;DHT22;2990;48.746;9.236;2022-12-18T18:01:01;-4.50;1.00
5930;DHT22;2990;48.746;9.236;2022-12-18T18:03:27;-4.50;1.00
5930;DHT22;2990;48.746;9.236;2022-12-18T18:06:00;-4.60;1.00
5930;DHT22;2990;48.746;9.236;2022-12-18T18:08:26;-4.60;1.00
5930;DHT22;2990;48.746;9.236;2022-12-18T18:10:52;-4.60;1.00
5930;DHT22;2990;48.746;9.236;2022-12-18T18:16:04;-4.60;1.00
5930;DHT22;2990;48.746;9.236;2022-12-18T18:18:30;-4.60;1.00